Time;durP1;ratioP1;P1;durP2;ratioP2;P2;SDS_P1;SDS_P2;PMS_P1;PMS_P2;Temp;Humidity;BMP_temperature;BMP_pressure;BME280_temperature;BME280_humidity;BME280_pressure;Samples;Min_cycle;Max_cycle;Signal;HPM_P1;HPM_P2
2022/02/28 00:01:53;;;;;;;1999.90;999.90;;;9.80;55.40;;;;;;5012876;28;20049;-80
2022/02/28 00:04:21;;;;;;;1999.90;999.90;;;9.80;55.40;;;;;;4996065;28;20037;-80
2022/02/28 00:06:47;;;;;;;1999.90;999.90;;;9.80;55.50;;;;;;5013940;28;20026;-80
2022/02/28 00:09:14;;;;;;;1999.90;999.90;;;9.70;55.50;;;;;;5012933;28;20038;-80
2022/02/28 00:11:40;;;;;;;1999.90;999.90;;;9.70;55.50;;;;;;5011416;28;20030;-80
2022/02/28 00:14:06;;;;;;;1999.90;999.90;;;9.60;55.50;;;;;;5007810;28;20045;-80
2022/02/28 00:16:32;;;;;;;1999.90;999.90;;;9.60;55.60;;;;;;4995875;28;20038;-80
2022/02/28 00:18:58;;;;;;;1999.90;999.90;;;9.50;55.60;;;;;;4997217;28;20033;-80
2022/02/28 00:21:24;;;;;;;1999.90;999.90;;;9.50;55.70;;;;;;5013625;28;20026;-79
2022/02/28 00:23:50;;;;;;;1999.90;999.90;;;9.50;55.80;;;;;;4989695;28;20491;-79
2022/02/28 00:26:16;;;;;;;1999.90;999.90;;;9.50;55.80;;;;;;5044244;28;20051;-80
2022/02/28 00:28:42;;;;;;;1999.90;999.90;;;9.40;55.70;;;;;;4993898;28;20042;-80
2022/02/28 00:31:08;;;;;;;1999.90;999.90;;;9.40;55.70;;;;;;4979329;28;20034;-79
2022/02/28 00:33:35;;;;;;;1999.90;999.90;;;9.30;55.70;;;;;;4995792;28;20030;-80
2022/02/28 00:36:01;;;;;;;1999.90;999.90;;;9.30;56.30;;;;;;4976788;28;20057;-80
2022/02/28 00:38:27;;;;;;;1999.90;999.90;;;9.30;55.80;;;;;;5020566;28;20038;-80
2022/02/28 00:40:53;;;;;;;1999.90;999.90;;;9.20;55.80;;;;;;5012872;28;20026;-79
2022/02/28 00:43:19;;;;;;;1999.90;999.90;;;9.20;55.80;;;;;;4994733;28;20053;-79
2022/02/28 00:45:45;;;;;;;1999.90;999.90;;;9.20;56.00;;;;;;4996361;28;20034;-80
2022/02/28 00:48:11;;;;;;;1999.90;999.90;;;9.10;55.90;;;;;;5025531;28;20035;-79
2022/02/28 00:50:37;;;;;;;1999.90;999.90;;;9.10;56.00;;;;;;5027862;28;20363;-79
2022/02/28 00:53:04;;;;;;;1999.90;999.90;;;9.10;56.00;;;;;;5012418;28;20056;-79
2022/02/28 00:55:30;;;;;;;1999.90;999.90;;;9.00;56.00;;;;;;5011302;28;20033;-79
2022/02/28 00:57:56;;;;;;;1999.90;999.90;;;9.00;56.00;;;;;;5011914;28;20475;-79
2022/02/28 01:00:22;;;;;;;1999.90;999.90;;;9.00;56.00;;;;;;5009342;28;20049;-79
2022/02/28 01:02:49;;;;;;;1999.90;999.90;;;8.90;56.00;;;;;;5009166;28;20026;-79
2022/02/28 01:05:15;;;;;;;1999.90;999.90;;;8.90;56.10;;;;;;5008194;28;20026;-79
2022/02/28 01:07:42;;;;;;;1999.90;999.90;;;8.90;56.10;;;;;;5009638;28;20030;-79
2022/02/28 01:10:09;;;;;;;1999.90;999.90;;;8.90;56.10;;;;;;4994251;28;20041;-79
2022/02/28 01:12:36;;;;;;;1999.90;999.90;;;8.90;56.20;;;;;;5013033;28;20383;-79
2022/02/28 01:15:03;;;;;;;1999.90;999.90;;;8.90;56.20;;;;;;5010192;28;20049;-78
2022/02/28 01:17:29;;;;;;;1999.90;999.90;;;8.80;56.20;;;;;;4994200;28;20530;-79
2022/02/28 01:19:55;;;;;;;1999.90;999.90;;;8.80;56.10;;;;;;5022731;28;20034;-79
2022/02/28 01:22:21;;;;;;;1999.90;999.90;;;8.80;56.20;;;;;;5010486;28;20033;-79
2022/02/28 01:24:47;;;;;;;1999.90;999.90;;;8.80;56.20;;;;;;5013770;28;20506;-79
2022/02/28 01:27:13;;;;;;;1999.90;999.90;;;8.70;56.20;;;;;;5009982;28;20038;-79
2022/02/28 01:29:40;;;;;;;1999.90;999.90;;;8.70;56.20;;;;;;5010073;28;20038;-79
2022/02/28 01:32:06;;;;;;;1999.90;999.90;;;8.70;56.30;;;;;;5005591;28;20042;-79
2022/02/28 01:34:32;;;;;;;1999.90;999.90;;;8.60;56.30;;;;;;5010486;28;20038;-79
2022/02/28 01:36:58;;;;;;;1999.90;999.90;;;8.60;56.30;;;;;;5028283;28;20034;-79
2022/02/28 01:39:25;;;;;;;1999.90;999.90;;;8.60;56.30;;;;;;5010025;28;20479;-79
2022/02/28 01:41:51;;;;;;;1999.90;999.90;;;8.60;56.40;;;;;;5007487;28;20045;-79
2022/02/28 01:44:17;;;;;;;1999.90;999.90;;;8.60;56.40;;;;;;5023682;28;20034;-80
2022/02/28 01:46:43;;;;;;;1999.90;999.90;;;8.60;56.40;;;;;;5008688;28;20033;-79
2022/02/28 01:49:09;;;;;;;1999.90;999.90;;;8.50;56.40;;;;;;5010885;28;20041;-79
2022/02/28 01:51:36;;;;;;;1999.90;999.90;;;8.50;56.50;;;;;;5012912;28;20037;-79
2022/02/28 01:54:03;;;;;;;1999.90;999.90;;;8.40;56.50;;;;;;5011456;28;20034;-81
2022/02/28 01:56:29;;;;;;;1999.90;999.90;;;8.40;56.50;;;;;;5010520;28;20025;-79
2022/02/28 01:58:55;;;;;;;1999.90;999.90;;;8.40;56.60;;;;;;5005383;28;20050;-79
2022/02/28 02:01:21;;;;;;;1999.90;999.90;;;8.30;56.60;;;;;;5009595;28;20045;-79
2022/02/28 02:03:47;;;;;;;1999.90;999.90;;;8.30;56.60;;;;;;5042770;28;20045;-79
2022/02/28 02:06:13;;;;;;;1999.90;999.90;;;8.20;56.70;;;;;;5024506;28;20486;-79
2022/02/28 02:08:40;;;;;;;1999.90;999.90;;;8.20;56.70;;;;;;5026171;28;20038;-79
2022/02/28 02:11:06;;;;;;;1999.90;999.90;;;8.10;56.70;;;;;;5011084;28;20034;-79
2022/02/28 02:13:32;;;;;;;1999.90;999.90;;;8.10;56.70;;;;;;5027195;28;20395;-79
2022/02/28 02:15:59;;;;;;;1999.90;999.90;;;8.10;56.80;;;;;;5010945;28;20033;-79
2022/02/28 02:18:25;;;;;;;1999.90;999.90;;;8.00;56.80;;;;;;4989485;28;20062;-79
2022/02/28 02:20:51;;;;;;;1999.90;999.90;;;8.00;56.90;;;;;;5000493;28;20029;-81
2022/02/28 02:23:17;;;;;;;1999.90;999.90;;;7.90;56.90;;;;;;5009479;28;20050;-79
2022/02/28 02:25:44;;;;;;;1999.90;999.90;;;7.90;57.00;;;;;;4991583;28;20042;-79
2022/02/28 02:28:15;;;;;;;1999.90;999.90;;;7.90;57.00;;;;;;4993472;28;20030;-79
2022/02/28 02:30:52;;;;;;;1999.90;999.90;;;7.90;57.00;;;;;;5008528;28;20037;-79
2022/02/28 02:33:19;;;;;;;1999.90;999.90;;;7.80;57.00;;;;;;4996368;28;20486;-79
2022/02/28 02:35:52;;;;;;;1999.90;999.90;;;7.80;57.10;;;;;;4992990;28;20038;-79
2022/02/28 02:38:18;;;;;;;1999.90;999.90;;;7.80;57.00;;;;;;5023780;28;20034;-79
2022/02/28 02:40:44;;;;;;;1999.90;999.90;;;7.80;57.10;;;;;;5007940;28;20046;-79
2022/02/28 02:43:11;;;;;;;1999.90;999.90;;;7.80;57.10;;;;;;4976480;28;20045;-79
2022/02/28 02:45:37;;;;;;;1999.90;999.90;;;7.70;57.10;;;;;;5010607;28;20041;-79
2022/02/28 02:48:19;;;;;;;1999.90;999.90;;;7.70;57.20;;;;;;5009202;28;20026;-79
2022/02/28 02:50:45;;;;;;;1999.90;999.90;;;7.70;57.20;;;;;;5025280;28;20055;-79
2022/02/28 02:53:11;;;;;;;1999.90;999.90;;;7.70;57.20;;;;;;5006262;28;20387;-79
2022/02/28 02:55:38;;;;;;;1999.90;999.90;;;7.60;57.20;;;;;;4991546;28;20038;-79
2022/02/28 02:58:04;;;;;;;1999.90;999.90;;;7.60;57.30;;;;;;4977427;28;20049;-79
2022/02/28 03:00:32;;;;;;;1999.90;999.90;;;7.50;57.30;;;;;;5010031;28;20487;-80
2022/02/28 03:02:58;;;;;;;1999.90;999.90;;;7.40;57.40;;;;;;4989165;28;20037;-79
2022/02/28 03:05:24;;;;;;;1999.90;999.90;;;7.40;57.50;;;;;;5006640;28;20057;-79
2022/02/28 03:07:50;;;;;;;1999.90;999.90;;;7.30;57.50;;;;;;5002461;28;20402;-79
2022/02/28 03:10:16;;;;;;;1999.90;999.90;;;7.30;58.20;;;;;;4989642;28;20065;-79
2022/02/28 03:12:43;;;;;;;1999.90;999.90;;;7.30;57.60;;;;;;5013523;28;20034;-79
2022/02/28 03:15:09;;;;;;;1999.90;999.90;;;7.20;57.60;;;;;;5011902;28;20053;-81
2022/02/28 03:17:36;;;;;;;1999.90;999.90;;;7.20;57.70;;;;;;5013622;28;20064;-80
2022/02/28 03:20:02;;;;;;;1999.90;999.90;;;7.20;57.60;;;;;;5023950;28;20040;-81
2022/02/28 03:22:28;;;;;;;1999.90;999.90;;;7.20;57.60;;;;;;4994525;28;20041;-80
2022/02/28 03:24:54;;;;;;;1999.90;999.90;;;7.20;57.50;;;;;;5027654;28;20041;-80
2022/02/28 03:27:20;;;;;;;1999.90;999.90;;;7.30;57.60;;;;;;5016718;28;20037;-80
2022/02/28 03:29:47;;;;;;;1999.90;999.90;;;7.30;57.60;;;;;;5016710;28;20410;-80
2022/02/28 03:32:13;;;;;;;1999.90;999.90;;;7.30;57.60;;;;;;5016939;28;20043;-80
2022/02/28 03:34:39;;;;;;;1999.90;999.90;;;7.30;57.70;;;;;;5027523;28;20038;-80
2022/02/28 03:37:05;;;;;;;1999.90;999.90;;;7.30;57.70;;;;;;5016109;28;20619;-81
2022/02/28 03:39:31;;;;;;;1999.90;999.90;;;7.30;57.60;;;;;;5026086;28;20046;-80
2022/02/28 03:41:57;;;;;;;1999.90;999.90;;;7.30;57.60;;;;;;5011240;28;20029;-80
2022/02/28 03:44:23;;;;;;;1999.90;999.90;;;7.30;57.60;;;;;;5013468;28;20049;-80
2022/02/28 03:46:50;;;;;;;1999.90;999.90;;;7.30;57.60;;;;;;5027150;28;20475;-80
2022/02/28 03:49:17;;;;;;;1999.90;999.90;;;7.20;57.60;;;;;;4996357;28;20400;-80
2022/02/28 03:51:43;;;;;;;1999.90;999.90;;;7.30;57.70;;;;;;4981220;28;20045;-80
2022/02/28 03:54:12;;;;;;;1999.90;999.90;;;7.30;57.70;;;;;;5027545;28;20048;-80
2022/02/28 03:56:39;;;;;;;1999.90;999.90;;;7.20;57.60;;;;;;4994887;28;20045;-80
2022/02/28 03:59:06;;;;;;;1999.90;999.90;;;7.30;57.70;;;;;;5023559;28;20049;-80
2022/02/28 04:01:32;;;;;;;1999.90;999.90;;;7.30;57.70;;;;;;5013377;28;20498;-80
2022/02/28 04:03:58;;;;;;;1999.90;999.90;;;7.30;57.60;;;;;;5029199;28;20049;-80
2022/02/28 04:06:25;;;;;;;1999.90;999.90;;;7.30;57.60;;;;;;5013387;28;20041;-80
2022/02/28 04:08:51;;;;;;;1999.90;999.90;;;7.30;57.60;;;;;;4993334;28;20038;-80
2022/02/28 04:11:17;;;;;;;1999.90;999.90;;;7.40;57.60;;;;;;5011726;28;20475;-80
2022/02/28 04:13:43;;;;;;;1999.90;999.90;;;7.40;57.50;;;;;;4995480;28;20049;-81
2022/02/28 04:16:09;;;;;;;1999.90;999.90;;;7.40;57.50;;;;;;5012080;28;20030;-81
2022/02/28 04:18:35;;;;;;;1999.90;999.90;;;7.40;57.50;;;;;;5011935;28;20475;-80
2022/02/28 04:21:01;;;;;;;1999.90;999.90;;;7.40;57.60;;;;;;5008526;28;20490;-81
2022/02/28 04:23:27;;;;;;;1999.90;999.90;;;7.30;57.70;;;;;;5011685;28;20050;-80
2022/02/28 04:25:54;;;;;;;1999.90;999.90;;;7.30;57.70;;;;;;5023743;28;20022;-81
2022/02/28 04:28:20;;;;;;;1999.90;999.90;;;7.20;57.80;;;;;;5012319;28;20529;-81
2022/02/28 04:30:46;;;;;;;1999.90;999.90;;;7.20;57.80;;;;;;5014300;28;20387;-80
2022/02/28 04:33:12;;;;;;;1999.90;999.90;;;7.20;57.80;;;;;;4990777;28;20114;-80
2022/02/28 04:35:38;;;;;;;1999.90;999.90;;;7.20;57.80;;;;;;5021091;28;20022;-80
2022/02/28 04:38:07;;;;;;;1999.90;999.90;;;7.20;57.90;;;;;;4995910;28;20038;-80
2022/02/28 04:40:33;;;;;;;1999.90;999.90;;;7.20;57.90;;;;;;5012497;28;20406;-80
2022/02/28 04:42:59;;;;;;;1999.90;999.90;;;7.20;57.80;;;;;;4980268;28;20045;-80
2022/02/28 04:45:25;;;;;;;1999.90;999.90;;;7.30;57.80;;;;;;5028796;28;20510;-80
2022/02/28 04:47:51;;;;;;;1999.90;999.90;;;7.20;57.80;;;;;;5011057;28;20029;-80
2022/02/28 04:50:18;;;;;;;1999.90;999.90;;;7.20;57.80;;;;;;5012368;28;20056;-82
2022/02/28 04:52:44;;;;;;;1999.90;999.90;;;7.20;57.90;;;;;;5009985;28;20034;-79
2022/02/28 04:55:10;;;;;;;1999.90;999.90;;;7.20;57.90;;;;;;5012083;28;20391;-80
2022/02/28 04:57:40;;;;;;;1999.90;999.90;;;7.20;57.90;;;;;;5008526;28;20048;-83
2022/02/28 05:00:07;;;;;;;1999.90;999.90;;;7.10;58.00;;;;;;5009834;28;20057;-84
2022/02/28 05:02:33;;;;;;;1999.90;999.90;;;7.00;58.10;;;;;;5012008;28;20030;-82
2022/02/28 05:05:00;;;;;;;1999.90;999.90;;;7.00;58.10;;;;;;5008553;28;20034;-84
2022/02/28 05:07:27;;;;;;;1999.90;999.90;;;6.90;58.20;;;;;;5010232;28;20053;-84
2022/02/28 05:09:53;;;;;;;1999.90;999.90;;;6.90;58.20;;;;;;5011643;28;20041;-84
2022/02/28 05:12:19;;;;;;;1999.90;999.90;;;6.90;58.20;;;;;;5025783;28;20046;-84
2022/02/28 05:14:45;;;;;;;1999.90;999.90;;;6.90;58.20;;;;;;5010335;28;20026;-85
2022/02/28 05:17:11;;;;;;;1999.90;999.90;;;6.90;58.20;;;;;;5042006;28;20064;-84
2022/02/28 05:19:37;;;;;;;1999.90;999.90;;;6.90;58.20;;;;;;5044786;28;20526;-85
2022/02/28 05:22:04;;;;;;;1999.90;999.90;;;6.80;58.30;;;;;;5042996;28;20037;-83
2022/02/28 05:24:31;;;;;;;1999.90;999.90;;;6.80;58.40;;;;;;5011389;28;20046;-84
2022/02/28 05:26:57;;;;;;;1999.90;999.90;;;6.70;58.40;;;;;;4994709;28;20037;-82
2022/02/28 05:29:23;;;;;;;1999.90;999.90;;;6.70;58.50;;;;;;4992852;28;20037;-84
2022/02/28 05:31:49;;;;;;;1999.90;999.90;;;6.70;58.60;;;;;;5002393;28;20053;-83
2022/02/28 05:34:16;;;;;;;1999.90;999.90;;;6.50;58.70;;;;;;4995379;28;20030;-83
2022/02/28 05:36:42;;;;;;;1999.90;999.90;;;6.50;58.90;;;;;;5010319;28;20474;-84
2022/02/28 05:39:08;;;;;;;1999.90;999.90;;;6.40;59.00;;;;;;5041746;28;20034;-80
2022/02/28 05:41:34;;;;;;;1999.90;999.90;;;6.30;59.10;;;;;;5011251;28;20407;-79
2022/02/28 05:44:00;;;;;;;1999.90;999.90;;;6.30;59.20;;;;;;5009258;28;20180;-79
2022/02/28 05:46:26;;;;;;;1999.90;999.90;;;6.30;59.20;;;;;;5018511;28;20045;-80
2022/02/28 05:48:52;;;;;;;1999.90;999.90;;;6.30;59.20;;;;;;5015424;28;20074;-80
2022/02/28 05:51:18;;;;;;;1999.90;999.90;;;6.30;59.10;;;;;;5026962;28;20410;-79
2022/02/28 05:53:44;;;;;;;1999.90;999.90;;;6.30;59.10;;;;;;5007537;28;20041;-79
2022/02/28 05:56:10;;;;;;;1999.90;999.90;;;6.30;59.20;;;;;;5010776;28;20042;-79
2022/02/28 05:58:37;;;;;;;1999.90;999.90;;;6.20;59.30;;;;;;4994283;28;20037;-79
2022/02/28 06:01:03;;;;;;;1999.90;999.90;;;6.20;59.40;;;;;;5027640;28;20038;-79
2022/02/28 06:03:29;;;;;;;1999.90;999.90;;;6.20;59.50;;;;;;5009803;28;20034;-80
2022/02/28 06:05:55;;;;;;;1999.90;999.90;;;6.10;59.60;;;;;;5010247;28;20030;-79
2022/02/28 06:08:21;;;;;;;1999.90;999.90;;;6.00;59.70;;;;;;5011633;28;20038;-79
2022/02/28 06:10:47;;;;;;;1999.90;999.90;;;6.00;59.70;;;;;;4997331;28;20046;-79
2022/02/28 06:13:13;;;;;;;1999.90;999.90;;;6.00;59.70;;;;;;5042201;28;20463;-79
2022/02/28 06:15:41;;;;;;;1999.90;999.90;;;6.00;59.70;;;;;;4991739;28;20042;-79
2022/02/28 06:18:11;;;;;;;1999.90;999.90;;;6.00;59.70;;;;;;5027283;28;20036;-80
2022/02/28 06:20:38;;;;;;;1999.90;999.90;;;6.00;59.80;;;;;;5009393;28;20022;-79
2022/02/28 06:23:04;;;;;;;1999.90;999.90;;;5.90;59.70;;;;;;4993737;28;20037;-80
2022/02/28 06:25:30;;;;;;;1999.90;999.90;;;5.90;59.80;;;;;;4993363;28;20030;-79
2022/02/28 06:27:56;;;;;;;1999.90;999.90;;;5.90;59.90;;;;;;5025450;28;20037;-79
2022/02/28 06:30:23;;;;;;;1999.90;999.90;;;5.80;59.90;;;;;;5042354;28;20042;-79
2022/02/28 06:32:50;;;;;;;1999.90;999.90;;;5.80;60.00;;;;;;5043737;28;20026;-79
2022/02/28 06:35:16;;;;;;;1999.90;999.90;;;5.80;60.10;;;;;;5008047;28;20022;-79
2022/02/28 06:37:43;;;;;;;1999.90;999.90;;;5.80;60.00;;;;;;4991433;28;20494;-79
2022/02/28 06:40:09;;;;;;;1999.90;999.90;;;5.80;59.90;;;;;;5043734;28;20030;-79
2022/02/28 06:42:35;;;;;;;1999.90;999.90;;;5.80;59.80;;;;;;5012007;28;20034;-79
2022/02/28 06:45:03;;;;;;;1999.90;999.90;;;5.80;59.80;;;;;;4991466;28;20332;-79
2022/02/28 06:47:29;;;;;;;1999.90;999.90;;;5.90;59.80;;;;;;5006486;28;20033;-79
2022/02/28 06:49:55;;;;;;;1999.90;999.90;;;5.90;59.80;;;;;;4991774;28;20386;-79
2022/02/28 06:52:23;;;;;;;1999.90;999.90;;;5.90;59.80;;;;;;5009537;28;20049;-79
2022/02/28 06:54:53;;;;;;;1999.90;999.90;;;5.90;60.40;;;;;;5010496;28;20537;-79
2022/02/28 06:57:19;;;;;;;1999.90;999.90;;;5.90;59.70;;;;;;4993271;28;20038;-79
2022/02/28 06:59:45;;;;;;;1999.90;999.90;;;5.90;59.70;;;;;;4991838;28;20038;-79
2022/02/28 07:02:11;;;;;;;1999.90;999.90;;;5.90;59.70;;;;;;5041589;28;20576;-79
2022/02/28 07:04:37;;;;;;;1999.90;999.90;;;5.90;59.70;;;;;;5011193;28;20026;-79
2022/02/28 07:07:04;;;;;;;1999.90;999.90;;;6.00;60.40;;;;;;5026194;28;20048;-79
2022/02/28 07:09:30;;;;;;;1999.90;999.90;;;6.00;59.70;;;;;;5003263;28;20411;-82
2022/02/28 07:11:56;;;;;;;1999.90;999.90;;;6.10;59.70;;;;;;4991604;28;20068;-79
2022/02/28 07:14:22;;;;;;;1999.90;999.90;;;6.10;59.60;;;;;;4989991;28;20030;-83
2022/02/28 07:16:49;;;;;;;1999.90;999.90;;;6.10;59.50;;;;;;5042915;28;20041;-85
2022/02/28 07:19:15;;;;;;;1999.90;999.90;;;6.20;59.50;;;;;;5042621;28;20026;-83
2022/02/28 07:21:41;;;;;;;1999.90;999.90;;;6.30;59.40;;;;;;4993196;28;20057;-83
2022/02/28 07:24:07;;;;;;;1999.90;999.90;;;6.30;59.40;;;;;;5009416;28;20053;-82
2022/02/28 07:26:36;;;;;;;1999.90;999.90;;;6.30;59.40;;;;;;5008233;28;20395;-81
2022/02/28 07:29:02;;;;;;;1999.90;999.90;;;6.30;59.50;;;;;;5006970;28;20387;-84
2022/02/28 07:31:28;;;;;;;1999.90;999.90;;;6.20;59.50;;;;;;5041132;28;20042;-80
2022/02/28 07:33:54;;;;;;;1999.90;999.90;;;6.20;59.60;;;;;;5010702;28;20030;-78
2022/02/28 07:36:20;;;;;;;1999.90;999.90;;;6.30;59.60;;;;;;5008805;28;20033;-80
2022/02/28 07:38:46;;;;;;;1999.90;999.90;;;6.30;59.60;;;;;;5009300;28;20025;-81
2022/02/28 07:41:12;;;;;;;1999.90;999.90;;;6.30;59.60;;;;;;5008481;28;20471;-79
2022/02/28 07:43:39;;;;;;;1999.90;999.90;;;6.40;59.60;;;;;;5031205;28;20033;-78
2022/02/28 07:46:05;;;;;;;1999.90;999.90;;;6.50;59.50;;;;;;5042837;28;20141;-78
2022/02/28 07:48:31;;;;;;;1999.90;999.90;;;6.60;59.40;;;;;;5010774;28;20034;-79
2022/02/28 07:50:57;;;;;;;1999.90;999.90;;;6.70;59.30;;;;;;5008186;28;20387;-80
2022/02/28 07:53:23;;;;;;;1999.90;999.90;;;7.00;59.10;;;;;;5020068;28;20029;-80
2022/02/28 07:55:50;;;;;;;1999.90;999.90;;;7.60;58.30;;;;;;5049065;28;20049;-80
2022/02/28 07:58:16;;;;;;;1999.90;999.90;;;8.30;57.20;;;;;;5009349;28;20509;-78
2022/02/28 08:00:42;;;;;;;1999.90;999.90;;;9.00;56.20;;;;;;5009857;28;20030;-78
2022/02/28 08:03:08;;;;;;;1999.90;999.90;;;9.60;55.40;;;;;;5011129;28;20387;-79
2022/02/28 08:05:34;;;;;;;1999.90;999.90;;;10.00;54.60;;;;;;4990251;28;20033;-83
2022/02/28 08:08:00;;;;;;;1999.90;999.90;;;10.50;54.20;;;;;;5002253;28;20039;-82
2022/02/28 08:10:26;;;;;;;1999.90;999.90;;;10.80;53.90;;;;;;4996363;28;20428;-81
2022/02/28 08:12:52;;;;;;;1999.90;999.90;;;11.30;53.50;;;;;;5002332;28;20030;-83
2022/02/28 08:15:18;;;;;;;1999.90;999.90;;;11.60;53.00;;;;;;5016988;28;20034;-83
2022/02/28 08:17:45;;;;;;;1999.90;999.90;;;11.70;53.00;;;;;;5031681;28;20505;-79
2022/02/28 08:20:11;;;;;;;1999.90;999.90;;;11.70;53.20;;;;;;5001012;28;20423;-78
2022/02/28 08:22:37;;;;;;;1999.90;999.90;;;11.50;53.60;;;;;;4996117;28;20050;-79
2022/02/28 08:25:03;;;;;;;1999.90;999.90;;;11.40;54.10;;;;;;5028370;28;20399;-79
2022/02/28 08:27:29;;;;;;;1999.90;999.90;;;11.20;54.40;;;;;;5009579;28;20479;-78
2022/02/28 08:29:56;;;;;;;1999.90;999.90;;;11.10;54.70;;;;;;5009415;28;20049;-81
2022/02/28 08:32:22;;;;;;;1999.90;999.90;;;11.00;55.00;;;;;;5025639;28;20049;-80
2022/02/28 08:34:48;;;;;;;1999.90;999.90;;;10.90;55.20;;;;;;5045462;28;20422;-81
2022/02/28 08:37:14;;;;;;;1999.90;999.90;;;10.90;55.40;;;;;;5045500;28;20037;-83
2022/02/28 08:39:40;;;;;;;1999.90;999.90;;;11.00;55.60;;;;;;5013108;28;20049;-83
2022/02/28 08:42:06;;;;;;;1999.90;999.90;;;11.00;55.50;;;;;;5012600;28;20042;-79
2022/02/28 08:44:32;;;;;;;1999.90;999.90;;;11.00;55.50;;;;;;5023528;28;20049;-82
2022/02/28 08:46:59;;;;;;;1999.90;999.90;;;11.00;55.40;;;;;;5027420;28;20033;-83
2022/02/28 08:49:25;;;;;;;1999.90;999.90;;;11.00;55.50;;;;;;5030547;28;20041;-84
2022/02/28 08:51:54;;;;;;;1999.90;999.90;;;11.00;55.50;;;;;;5023480;28;20041;-82
2022/02/28 08:54:21;;;;;;;1999.90;999.90;;;11.10;55.50;;;;;;5021970;28;20029;-81
2022/02/28 08:56:47;;;;;;;1999.90;999.90;;;11.30;55.40;;;;;;5051601;28;20030;-82
2022/02/28 08:59:13;;;;;;;1999.90;999.90;;;11.50;55.10;;;;;;5028945;28;20038;-83
2022/02/28 09:01:39;;;;;;;1999.90;999.90;;;11.70;54.80;;;;;;4993220;28;20042;-82
2022/02/28 09:04:05;;;;;;;1999.90;999.90;;;11.70;54.70;;;;;;5051799;28;20383;-82
2022/02/28 09:06:32;;;;;;;1999.90;999.90;;;11.70;54.80;;;;;;5022285;28;20491;-81
2022/02/28 09:08:58;;;;;;;1999.90;999.90;;;11.80;54.90;;;;;;5001016;28;20021;-83
2022/02/28 09:11:24;;;;;;;1999.90;999.90;;;11.80;54.70;;;;;;5013552;28;20044;-79
2022/02/28 09:13:50;;;;;;;1999.90;999.90;;;11.90;54.80;;;;;;5014033;28;20038;-78
2022/02/28 09:16:17;;;;;;;1999.90;999.90;;;12.00;54.60;;;;;;4998114;28;20041;-81
2022/02/28 09:18:43;;;;;;;1999.90;999.90;;;12.10;54.50;;;;;;5017315;28;20026;-82
2022/02/28 09:21:09;;;;;;;1999.90;999.90;;;12.20;54.40;;;;;;5013242;28;20395;-83
2022/02/28 09:23:35;;;;;;;1999.90;999.90;;;12.30;54.40;;;;;;5009202;28;20048;-82
2022/02/28 09:26:01;;;;;;;1999.90;999.90;;;12.30;54.40;;;;;;5017552;28;20048;-83
2022/02/28 09:28:27;;;;;;;1999.90;999.90;;;12.30;54.50;;;;;;5017224;28;20024;-80
2022/02/28 09:30:54;;;;;;;1999.90;999.90;;;12.20;54.50;;;;;;5017207;28;20061;-82
2022/02/28 09:33:20;;;;;;;1999.90;999.90;;;12.30;54.60;;;;;;5016582;28;20057;-83
2022/02/28 09:35:48;;;;;;;1999.90;999.90;;;12.40;54.50;;;;;;5013623;28;20045;-85
2022/02/28 09:38:15;;;;;;;1999.90;999.90;;;12.60;54.40;;;;;;5027265;28;20045;-86
2022/02/28 09:40:42;;;;;;;1999.90;999.90;;;12.70;54.20;;;;;;4998228;28;20033;-86
2022/02/28 09:43:08;;;;;;;1999.90;999.90;;;12.90;54.00;;;;;;5033424;28;20025;-90
2022/02/28 09:45:34;;;;;;;1999.90;999.90;;;13.00;53.90;;;;;;4999005;28;20497;-87
2022/02/28 09:48:00;;;;;;;1999.90;999.90;;;13.30;53.70;;;;;;5049497;28;20025;-87
2022/02/28 09:50:27;;;;;;;1999.90;999.90;;;13.70;53.40;;;;;;5015093;28;20042;-87
2022/02/28 09:52:53;;;;;;;1999.90;999.90;;;14.00;52.80;;;;;;5019445;28;20116;-88
2022/02/28 09:55:19;;;;;;;1999.90;999.90;;;14.40;52.50;;;;;;5020261;28;20037;-85
2022/02/28 09:57:47;;;;;;;1999.90;999.90;;;14.60;52.10;;;;;;5010734;28;20030;-86
2022/02/28 10:00:23;;;;;;;1999.90;999.90;;;14.60;52.20;;;;;;5008860;28;20109;-85
2022/02/28 10:02:50;;;;;;;1999.90;999.90;;;14.70;52.20;;;;;;5003964;28;20033;-82
2022/02/28 10:05:16;;;;;;;1999.90;999.90;;;14.80;52.00;;;;;;5011164;28;20390;-88
2022/02/28 10:07:59;;;;;;;1999.90;999.90;;;14.60;52.00;;;;;;5015565;28;20037;-88
2022/02/28 10:10:26;;;;;;;1999.90;999.90;;;14.30;52.40;;;;;;4995494;28;20052;-88
2022/02/28 10:12:53;;;;;;;1999.90;999.90;;;14.30;52.80;;;;;;4994792;28;20034;-74
2022/02/28 10:15:21;;;;;;;1999.90;999.90;;;14.20;52.90;;;;;;5041344;28;20026;-74
2022/02/28 10:17:56;;;;;;;1999.90;999.90;;;14.30;53.00;;;;;;5044100;28;20022;-74
2022/02/28 10:20:27;;;;;;;1999.90;999.90;;;14.30;53.00;;;;;;5012315;28;20038;-73
2022/02/28 10:23:07;;;;;;;1999.90;999.90;;;14.30;52.90;;;;;;5007517;28;20044;-74
2022/02/28 10:25:34;;;;;;;1999.90;999.90;;;14.40;52.80;;;;;;5021767;28;20034;-74
2022/02/28 10:28:16;;;;;;;1999.90;999.90;;;14.30;52.70;;;;;;5043677;28;20037;-74
2022/02/28 10:30:57;;;;;;;1999.90;999.90;;;14.30;53.00;;;;;;5008530;28;20038;-74
2022/02/28 10:33:30;;;;;;;1999.90;999.90;;;14.50;52.90;;;;;;5005754;28;20041;-74
2022/02/28 10:36:13;;;;;;;1999.90;999.90;;;14.70;52.70;;;;;;5008432;28;20033;-73
2022/02/28 10:38:50;;;;;;;1999.90;999.90;;;14.80;52.50;;;;;;5022548;28;20041;-74
2022/02/28 10:41:39;;;;;;;1999.90;999.90;;;14.90;52.10;;;;;;5023143;28;20049;-74
2022/02/28 10:44:08;;;;;;;1999.90;999.90;;;14.90;52.20;;;;;;4993339;28;20025;-74
2022/02/28 10:46:39;;;;;;;1999.90;999.90;;;14.80;52.00;;;;;;4991933;28;20614;-75
2022/02/28 10:49:15;;;;;;;1999.90;999.90;;;14.90;52.20;;;;;;5012023;28;20049;-74
2022/02/28 10:51:52;;;;;;;1999.90;999.90;;;15.10;52.10;;;;;;5011565;28;20048;-75
2022/02/28 10:54:23;;;;;;;1999.90;999.90;;;15.40;51.70;;;;;;5009164;28;20026;-78
2022/02/28 10:56:51;;;;;;;1999.90;999.90;;;15.60;51.40;;;;;;5009048;28;20516;-78
2022/02/28 10:59:19;;;;;;;1999.90;999.90;;;15.70;51.20;;;;;;5006489;28;20034;-77
2022/02/28 11:01:45;;;;;;;1999.90;999.90;;;15.60;51.80;;;;;;5007791;28;20042;-78
2022/02/28 11:04:11;;;;;;;1999.90;999.90;;;15.50;51.40;;;;;;5043865;28;20037;-78
2022/02/28 11:06:37;;;;;;;1999.90;999.90;;;15.50;51.40;;;;;;4985959;28;20042;-78
2022/02/28 11:09:04;;;;;;;1999.90;999.90;;;15.40;51.40;;;;;;5009108;28;20038;-78
2022/02/28 11:11:30;;;;;;;1999.90;999.90;;;15.40;51.50;;;;;;5004962;28;20406;-75
2022/02/28 11:13:57;;;;;;;1999.90;999.90;;;15.40;51.40;;;;;;5025439;28;20386;-74
2022/02/28 11:16:23;;;;;;;1999.90;999.90;;;15.50;51.40;;;;;;5011264;28;20050;-76
2022/02/28 11:18:49;;;;;;;1999.90;999.90;;;15.60;51.20;;;;;;5007930;28;20034;-78
2022/02/28 11:21:15;;;;;;;1999.90;999.90;;;15.60;51.20;;;;;;5011367;28;20042;-75
2022/02/28 11:23:43;;;;;;;1999.90;999.90;;;15.70;51.00;;;;;;5009340;28;20411;-76
2022/02/28 11:26:10;;;;;;;1999.90;999.90;;;15.70;50.80;;;;;;4974709;28;20407;-76
2022/02/28 11:28:36;;;;;;;1999.90;999.90;;;15.60;50.80;;;;;;5043239;28;20030;-76
2022/02/28 11:31:04;;;;;;;1999.90;999.90;;;15.60;51.00;;;;;;5009420;28;20045;-75
2022/02/28 11:33:30;;;;;;;1999.90;999.90;;;15.70;50.90;;;;;;5026172;28;20045;-76
2022/02/28 11:35:57;;;;;;;1999.90;999.90;;;15.80;50.90;;;;;;5008693;28;20387;-77
2022/02/28 11:38:24;;;;;;;1999.90;999.90;;;15.80;50.70;;;;;;4992252;28;20050;-76
2022/02/28 11:40:52;;;;;;;1999.90;999.90;;;15.90;50.80;;;;;;5009573;28;20033;-75
2022/02/28 11:43:22;;;;;;;1999.90;999.90;;;16.00;50.70;;;;;;5011580;28;20025;-74
2022/02/28 11:46:10;;;;;;;1999.90;999.90;;;16.00;50.50;;;;;;5014575;28;20045;-76
2022/02/28 11:48:46;;;;;;;1999.90;999.90;;;16.00;50.40;;;;;;5000304;28;20045;-74
2022/02/28 11:51:26;;;;;;;1999.90;999.90;;;16.10;50.50;;;;;;5010459;28;20041;-75
2022/02/28 11:53:52;;;;;;;1999.90;999.90;;;16.00;50.30;;;;;;5013194;28;20026;-74
2022/02/28 11:56:18;;;;;;;1999.90;999.90;;;16.00;50.40;;;;;;5014353;28;20030;-73
2022/02/28 11:58:55;;;;;;;1999.90;999.90;;;16.20;50.40;;;;;;5014559;28;20030;-74
2022/02/28 12:01:39;;;;;;;1999.90;999.90;;;16.40;50.10;;;;;;5028111;28;20390;-73
2022/02/28 12:04:11;;;;;;;1999.90;999.90;;;16.60;49.80;;;;;;5026491;28;20037;-74
2022/02/28 12:07:14;;;;;;;1999.90;999.90;;;16.60;49.70;;;;;;5026415;28;20046;-74